createdAt,value
2022-12-14T00:01:49.627Z,28.48
2022-12-14T00:04:20.405Z,31.00
2022-12-14T00:06:48.424Z,26.83
2022-12-14T00:09:16.281Z,28.77
2022-12-14T00:11:44.260Z,28.02
2022-12-14T00:14:13.516Z,27.92
2022-12-14T00:16:41.469Z,29.60
2022-12-14T00:19:11.586Z,30.40
2022-12-14T00:21:39.502Z,28.05
2022-12-14T00:24:07.708Z,26.98
2022-12-14T00:26:35.608Z,28.70
2022-12-14T00:29:03.751Z,25.40
2022-12-14T00:31:33.322Z,24.60
2022-12-14T00:34:02.131Z,31.13
2022-12-14T00:36:31.636Z,27.92
2022-12-14T00:39:00.066Z,27.75
2022-12-14T00:41:28.106Z,25.77
2022-12-14T00:43:56.119Z,30.55
2022-12-14T00:46:24.060Z,28.60
2022-12-14T00:48:53.378Z,30.17
2022-12-14T00:51:21.282Z,34.88
2022-12-14T00:53:49.360Z,30.40
2022-12-14T00:56:17.320Z,33.53
2022-12-14T00:58:50.765Z,29.85
2022-12-14T01:01:18.996Z,32.38
2022-12-14T01:03:47.180Z,28.17
2022-12-14T01:06:19.049Z,32.03
2022-12-14T01:08:47.505Z,27.13
2022-12-14T01:11:15.670Z,26.77
2022-12-14T01:13:43.725Z,28.33
2022-12-14T01:16:14.210Z,25.88
2022-12-14T01:18:44.194Z,28.52
2022-12-14T01:21:14.355Z,30.42
2022-12-14T01:23:44.996Z,28.80
2022-12-14T01:26:13.269Z,28.27
2022-12-14T01:28:41.526Z,32.25
2022-12-14T01:31:12.029Z,30.77
2022-12-14T01:33:40.659Z,31.98
2022-12-14T01:36:10.208Z,31.38
2022-12-14T01:38:38.680Z,37.45
2022-12-14T01:41:09.649Z,29.42
2022-12-14T01:43:49.078Z,31.92
2022-12-14T01:46:22.262Z,31.20
2022-12-14T01:48:51.716Z,35.22
2022-12-14T01:51:19.779Z,32.45
2022-12-14T01:53:48.167Z,34.33
2022-12-14T01:56:18.816Z,26.73
2022-12-14T01:58:46.847Z,32.33
2022-12-14T02:01:15.162Z,32.10
2022-12-14T02:03:46.956Z,29.67
2022-12-14T02:06:19.550Z,33.40
2022-12-14T02:08:48.583Z,28.17
2022-12-14T02:11:33.984Z,36.55
2022-12-14T02:14:01.884Z,34.15
2022-12-14T02:16:30.280Z,33.45
2022-12-14T02:18:58.199Z,32.75
2022-12-14T02:21:37.659Z,34.30
2022-12-14T02:24:34.300Z,36.58
2022-12-14T02:27:19.540Z,33.38
2022-12-14T02:30:11.674Z,38.13
2022-12-14T02:32:53.062Z,39.92
2022-12-14T02:35:30.445Z,35.17
2022-12-14T02:38:08.839Z,31.40
2022-12-14T02:40:43.140Z,34.05
2022-12-14T02:43:19.099Z,33.67
2022-12-14T02:45:55.572Z,35.10
2022-12-14T02:48:27.559Z,32.90
2022-12-14T02:51:04.556Z,30.40
2022-12-14T02:53:37.499Z,32.50
2022-12-14T02:56:09.678Z,33.55
2022-12-14T02:58:40.888Z,31.40
2022-12-14T03:01:15.464Z,33.35
2022-12-14T03:03:44.060Z,35.92
2022-12-14T03:06:26.174Z,60.63
2022-12-14T03:08:59.028Z,34.75
2022-12-14T03:11:34.281Z,31.40
2022-12-14T03:14:07.657Z,34.10
2022-12-14T03:16:42.602Z,44.95
2022-12-14T03:19:16.879Z,35.38
2022-12-14T03:21:48.668Z,35.90
2022-12-14T03:24:20.510Z,34.75
2022-12-14T03:26:52.864Z,33.15
2022-12-14T03:29:24.464Z,33.65
2022-12-14T03:31:55.693Z,34.92
2022-12-14T03:34:28.332Z,33.63
2022-12-14T03:37:03.381Z,38.53
2022-12-14T03:39:34.472Z,32.85
2022-12-14T03:42:11.069Z,34.35
2022-12-14T03:44:49.441Z,35.45
2022-12-14T03:47:33.741Z,32.47
2022-12-14T03:50:05.819Z,32.22
2022-12-14T03:52:38.728Z,33.13
2022-12-14T03:55:21.475Z,34.10
2022-12-14T03:58:01.378Z,37.38
2022-12-14T04:00:33.109Z,30.25
2022-12-14T04:03:11.246Z,34.38
2022-12-14T04:05:48.735Z,35.63
2022-12-14T04:08:23.787Z,32.85
2022-12-14T04:11:12.800Z,35.40
2022-12-14T04:14:04.048Z,38.55
2022-12-14T04:16:54.140Z,35.75
2022-12-14T04:19:27.410Z,43.13
2022-12-14T04:22:00.113Z,37.35
2022-12-14T04:24:53.111Z,40.10
2022-12-14T04:27:25.816Z,40.60
2022-12-14T04:29:56.851Z,37.42
2022-12-14T04:32:30.745Z,41.15
2022-12-14T04:35:05.358Z,51.55
2022-12-14T04:37:36.908Z,44.83
2022-12-14T04:40:09.778Z,35.38
2022-12-14T04:42:44.940Z,35.65
2022-12-14T04:45:18.171Z,34.80
2022-12-14T04:47:52.450Z,34.33
2022-12-14T04:50:27.957Z,36.03
2022-12-14T04:53:01.112Z,35.67
2022-12-14T04:55:35.371Z,37.97
2022-12-14T04:58:09.920Z,39.47
2022-12-14T05:00:50.354Z,39.65
2022-12-14T05:03:25.897Z,34.05
2022-12-14T05:06:06.662Z,35.42
2022-12-14T05:08:57.793Z,36.35
2022-12-14T05:11:52.577Z,35.28
2022-12-14T05:14:23.267Z,34.67
2022-12-14T05:16:51.632Z,37.10
2022-12-14T05:19:19.597Z,36.83
2022-12-14T05:21:48.928Z,35.78
2022-12-14T05:24:18.109Z,38.42
2022-12-14T05:26:46.199Z,41.72
2022-12-14T05:29:14.970Z,39.83
2022-12-14T05:31:42.880Z,37.90
2022-12-14T05:34:17.272Z,40.20
2022-12-14T05:36:45.276Z,40.25
2022-12-14T05:39:15.117Z,43.65
2022-12-14T05:41:43.568Z,38.63
2022-12-14T05:44:11.626Z,36.58
2022-12-14T05:46:40.064Z,34.72
2022-12-14T05:49:07.984Z,34.85
2022-12-14T05:51:35.984Z,36.55
2022-12-14T05:54:04.020Z,42.03
2022-12-14T05:56:33.294Z,37.95
2022-12-14T05:59:02.494Z,36.55
2022-12-14T06:01:30.533Z,37.00
2022-12-14T06:03:58.477Z,38.30
2022-12-14T06:06:26.500Z,34.72
2022-12-14T06:08:54.440Z,36.72
2022-12-14T06:11:23.857Z,37.70
2022-12-14T06:13:53.175Z,37.63
2022-12-14T06:16:23.310Z,53.20
2022-12-14T06:18:52.919Z,56.65
2022-12-14T06:21:22.595Z,58.85
2022-12-14T06:23:50.664Z,50.80
2022-12-14T06:26:19.119Z,44.75
2022-12-14T06:28:47.099Z,38.78
2022-12-14T06:31:18.672Z,41.72
2022-12-14T06:33:46.889Z,39.88
2022-12-14T06:36:19.151Z,38.83
2022-12-14T06:38:47.453Z,38.35
2022-12-14T06:41:15.537Z,42.10
2022-12-14T06:43:43.885Z,42.30
2022-12-14T06:46:15.719Z,41.17
2022-12-14T06:48:49.764Z,34.90
2022-12-14T06:51:18.144Z,42.25
2022-12-14T06:53:46.307Z,39.83
2022-12-14T06:56:16.358Z,38.30
2022-12-14T06:58:44.706Z,42.35
2022-12-14T07:01:15.253Z,40.42
2022-12-14T07:03:48.375Z,39.67
2022-12-14T07:06:16.667Z,37.30
2022-12-14T07:08:45.225Z,36.05
2022-12-14T07:11:14.798Z,43.13
2022-12-14T07:13:43.543Z,45.38
2022-12-14T07:16:16.576Z,38.22
2022-12-14T07:18:45.999Z,52.90
2022-12-14T07:21:15.991Z,53.03
2022-12-14T07:23:45.591Z,58.38
2022-12-14T07:26:16.271Z,54.17
2022-12-14T07:28:44.713Z,46.47
2022-12-14T07:31:14.891Z,48.55
2022-12-14T07:33:43.050Z,52.55
2022-12-14T07:36:15.786Z,46.60
2022-12-14T07:38:46.464Z,44.35
2022-12-14T07:41:20.540Z,42.30
2022-12-14T07:43:50.771Z,47.83
2022-12-14T07:46:20.509Z,46.33
2022-12-14T07:48:49.975Z,43.72
2022-12-14T07:51:22.459Z,45.88
2022-12-14T07:53:53.633Z,41.70
2022-12-14T07:56:24.846Z,42.17
2022-12-14T07:58:53.232Z,45.97
2022-12-14T08:01:23.247Z,42.30
2022-12-14T08:03:53.166Z,40.40
2022-12-14T08:06:24.279Z,41.50
2022-12-14T08:08:53.558Z,41.03
2022-12-14T08:11:22.614Z,45.33
2022-12-14T08:13:54.455Z,45.63
2022-12-14T08:16:22.674Z,46.55
2022-12-14T08:18:51.611Z,49.08
2022-12-14T08:21:21.596Z,42.42
2022-12-14T08:23:51.877Z,45.38
2022-12-14T08:26:20.799Z,42.15
2022-12-14T08:28:49.212Z,45.78
2022-12-14T08:31:18.975Z,48.88
2022-12-14T08:33:47.676Z,45.35
2022-12-14T08:36:17.453Z,48.25
2022-12-14T08:38:46.036Z,39.45
2022-12-14T08:41:18.419Z,41.13
2022-12-14T08:43:50.179Z,45.83
2022-12-14T08:46:18.273Z,50.60
2022-12-14T08:48:46.354Z,46.28
2022-12-14T08:51:14.729Z,48.50
2022-12-14T08:53:42.654Z,52.60
2022-12-14T08:56:13.334Z,57.42
2022-12-14T08:58:43.064Z,50.92
2022-12-14T09:01:13.748Z,49.08
2022-12-14T09:03:42.568Z,68.28
2022-12-14T09:06:13.035Z,54.50
2022-12-14T09:08:41.554Z,51.75
2022-12-14T09:11:12.806Z,52.00
2022-12-14T09:13:42.407Z,54.55
2022-12-14T09:16:13.081Z,53.88
2022-12-14T09:18:41.324Z,58.15
2022-12-14T09:21:09.839Z,55.13
2022-12-14T09:23:38.081Z,54.70
2022-12-14T09:26:08.245Z,52.63
2022-12-14T09:28:38.547Z,52.65
2022-12-14T09:31:09.701Z,53.78
2022-12-14T09:33:37.865Z,57.58
2022-12-14T09:36:07.993Z,67.70
2022-12-14T09:38:37.731Z,60.20
2022-12-14T09:41:07.916Z,52.97
2022-12-14T09:43:41.414Z,62.10
2022-12-14T09:46:37.033Z,57.80
2022-12-14T09:49:05.329Z,51.33
2022-12-14T09:51:36.667Z,53.35
2022-12-14T09:54:08.510Z,51.33
2022-12-14T09:56:39.415Z,52.22
2022-12-14T09:59:07.564Z,60.22
2022-12-14T10:02:13.905Z,77.85
2022-12-14T10:04:47.832Z,51.05
2022-12-14T10:07:22.359Z,50.97
2022-12-14T10:09:57.567Z,49.85
2022-12-14T10:12:36.745Z,58.75
2022-12-14T10:15:15.724Z,56.70
2022-12-14T10:18:03.353Z,58.65
2022-12-14T10:20:42.912Z,57.95
2022-12-14T10:23:21.096Z,52.80
2022-12-14T10:25:55.817Z,50.13
2022-12-14T10:28:30.706Z,56.83
2022-12-14T10:31:02.414Z,52.85
2022-12-14T10:33:32.994Z,55.00
2022-12-14T10:36:09.126Z,55.25
2022-12-14T10:38:44.497Z,55.97
2022-12-14T10:41:26.410Z,49.42
2022-12-14T10:44:00.694Z,52.35
2022-12-14T10:46:35.047Z,49.17
2022-12-14T10:49:14.399Z,46.03
2022-12-14T10:51:46.869Z,47.78
2022-12-14T10:54:25.613Z,53.30
2022-12-14T10:56:53.615Z,47.60
2022-12-14T11:00:03.274Z,49.63
2022-12-14T11:02:37.920Z,49.47
2022-12-14T11:05:23.488Z,54.70
2022-12-14T11:07:52.148Z,53.72
2022-12-14T11:10:22.419Z,50.17
2022-12-14T11:12:59.710Z,50.28
2022-12-14T11:15:31.118Z,45.17
2022-12-14T11:18:05.736Z,52.33
2022-12-14T11:20:35.437Z,60.25
2022-12-14T11:23:09.302Z,54.40
2022-12-14T11:25:40.799Z,52.42
2022-12-14T11:28:30.091Z,55.05
2022-12-14T11:31:04.042Z,61.28
2022-12-14T11:33:35.829Z,60.20
2022-12-14T11:36:05.441Z,67.20
2022-12-14T11:38:33.628Z,64.10
2022-12-14T11:41:10.607Z,57.53
2022-12-14T11:43:39.687Z,58.63
2022-12-14T11:46:07.970Z,57.60
2022-12-14T11:48:38.414Z,58.17
2022-12-14T11:51:15.137Z,58.30
2022-12-14T11:53:43.251Z,56.70
2022-12-14T11:56:17.141Z,54.80
2022-12-14T11:58:52.314Z,55.78
2022-12-14T12:01:24.837Z,60.15
2022-12-14T12:03:56.930Z,63.80
2022-12-14T12:06:28.705Z,61.90
2022-12-14T12:08:58.568Z,69.50
2022-12-14T12:11:29.500Z,66.20
2022-12-14T12:14:01.721Z,73.30
2022-12-14T12:16:32.787Z,72.45
2022-12-14T12:19:11.634Z,70.78
2022-12-14T12:21:44.686Z,82.65
2022-12-14T12:24:19.282Z,78.05
2022-12-14T12:26:50.768Z,72.97
2022-12-14T12:29:25.278Z,78.75
2022-12-14T12:31:58.765Z,82.15
2022-12-14T12:34:31.396Z,71.63
2022-12-14T12:39:57.823Z,70.38
2022-12-14T12:42:35.843Z,64.00
2022-12-14T12:45:12.548Z,66.07
2022-12-14T12:47:47.623Z,74.13
2022-12-14T12:50:18.721Z,87.32
2022-12-14T12:53:02.397Z,100.80
2022-12-14T12:55:36.637Z,68.57
2022-12-14T12:58:09.831Z,64.47
2022-12-14T13:00:41.198Z,68.13
2022-12-14T13:03:14.430Z,57.53
2022-12-14T13:05:46.862Z,70.32
2022-12-14T13:08:24.902Z,95.00
2022-12-14T13:11:25.103Z,89.43
2022-12-14T13:13:47.949Z,76.40
2022-12-14T13:16:24.695Z,67.45
2022-12-14T13:19:13.215Z,76.47
2022-12-14T13:21:51.414Z,75.53
2022-12-14T13:24:22.606Z,75.93
2022-12-14T13:27:35.379Z,77.72
2022-12-14T13:30:18.516Z,76.55
2022-12-14T13:33:02.396Z,73.80
2022-12-14T13:35:53.355Z,88.32
2022-12-14T13:38:48.981Z,98.85
2022-12-14T13:41:31.780Z,88.68
2022-12-14T13:44:36.105Z,97.70
2022-12-14T13:47:15.734Z,127.10
2022-12-14T13:50:26.637Z,90.97
2022-12-14T13:52:45.693Z,87.43
2022-12-14T13:55:34.322Z,81.70
2022-12-14T13:58:17.025Z,82.55
2022-12-14T14:00:51.910Z,80.68
2022-12-14T14:03:45.289Z,90.38
2022-12-14T14:06:41.284Z,111.65
2022-12-14T14:09:46.500Z,119.05
2022-12-14T14:12:41.781Z,97.13
2022-12-14T14:15:52.044Z,89.65
2022-12-14T14:18:29.901Z,86.68
2022-12-14T14:21:30.636Z,129.77
2022-12-14T14:24:01.030Z,125.15
2022-12-14T14:26:32.073Z,155.57
2022-12-14T14:29:33.006Z,143.40
2022-12-14T14:32:04.589Z,199.38
2022-12-14T14:34:47.078Z,219.52
2022-12-14T14:37:31.338Z,226.27
2022-12-14T14:40:21.670Z,511.23
2022-12-14T14:42:56.755Z,304.17
2022-12-14T14:45:33.215Z,141.35
2022-12-14T14:48:09.257Z,237.75
2022-12-14T14:50:39.920Z,167.32
2022-12-14T14:53:31.296Z,197.73
2022-12-14T14:56:13.535Z,192.10
2022-12-14T14:58:43.086Z,140.75
2022-12-14T15:01:24.631Z,136.02
2022-12-14T15:03:57.597Z,183.50
2022-12-14T15:06:29.697Z,102.90
2022-12-14T15:09:01.525Z,100.68
2022-12-14T15:11:37.206Z,95.18
2022-12-14T15:14:19.007Z,103.90
2022-12-14T15:16:47.181Z,138.07
2022-12-14T15:19:25.318Z,399.98
2022-12-14T15:21:57.363Z,452.38
2022-12-14T15:24:26.740Z,293.58
2022-12-14T15:26:54.946Z,289.85
2022-12-14T15:29:28.756Z,126.47
2022-12-14T15:32:00.570Z,116.75
2022-12-14T15:34:30.103Z,118.90
2022-12-14T15:36:58.637Z,122.00
2022-12-14T15:39:38.291Z,112.88
2022-12-14T15:42:11.332Z,120.63
2022-12-14T15:44:43.813Z,128.70
2022-12-14T15:47:26.971Z,111.82
2022-12-14T15:50:01.321Z,126.20
2022-12-14T15:52:31.866Z,97.25
2022-12-14T15:55:01.105Z,97.35
2022-12-14T15:57:29.261Z,90.35
2022-12-14T16:00:01.131Z,104.97
2022-12-14T16:02:32.202Z,190.63
2022-12-14T16:05:04.240Z,100.97
2022-12-14T16:07:38.485Z,120.25
2022-12-14T16:10:16.295Z,120.90
2022-12-14T16:12:47.836Z,115.88
2022-12-14T16:15:20.891Z,95.65
2022-12-14T16:17:53.657Z,107.32
2022-12-14T16:20:29.610Z,101.35
2022-12-14T16:23:01.367Z,98.50
2022-12-14T16:25:30.520Z,107.82
2022-12-14T16:27:58.815Z,92.47
2022-12-14T16:30:29.896Z,97.88
2022-12-14T16:33:16.682Z,102.25
2022-12-14T16:35:47.509Z,94.30
2022-12-14T16:38:18.038Z,91.75
2022-12-14T16:40:55.122Z,89.68
2022-12-14T16:43:30.751Z,88.78
2022-12-14T16:46:19.940Z,93.68
2022-12-14T16:49:03.951Z,95.18
2022-12-14T16:52:05.700Z,89.65
2022-12-14T16:54:30.145Z,88.97
2022-12-14T16:57:04.159Z,95.22
2022-12-14T16:59:40.694Z,82.95
2022-12-14T17:02:26.185Z,85.75
2022-12-14T17:04:54.892Z,81.57
2022-12-14T17:07:27.138Z,76.47
2022-12-14T17:09:56.699Z,80.95
2022-12-14T17:12:26.427Z,83.50
2022-12-14T17:14:54.986Z,91.85
2022-12-14T17:17:29.948Z,89.85
2022-12-14T17:19:58.122Z,77.15
2022-12-14T17:22:30.777Z,94.20
2022-12-14T17:24:59.309Z,85.38
2022-12-14T17:27:27.801Z,77.35
2022-12-14T17:29:57.408Z,71.10
2022-12-14T17:32:29.906Z,82.85
2022-12-14T17:34:57.905Z,64.30
2022-12-14T17:37:32.585Z,61.65
2022-12-14T17:40:05.194Z,60.97
2022-12-14T17:42:33.340Z,57.20
2022-12-14T17:45:02.018Z,61.60
2022-12-14T17:47:30.090Z,59.65
2022-12-14T17:49:58.157Z,60.25
2022-12-14T17:52:31.810Z,61.55
2022-12-14T17:55:01.437Z,65.35
2022-12-14T17:57:29.659Z,68.72
2022-12-14T18:00:11.685Z,66.18
2022-12-14T18:02:40.652Z,64.03
2022-12-14T18:05:18.503Z,62.15
2022-12-14T18:07:49.575Z,63.00
2022-12-14T18:10:19.565Z,59.60
2022-12-14T18:12:47.839Z,65.70
2022-12-14T18:15:19.585Z,63.38
2022-12-14T18:17:49.256Z,64.75
2022-12-14T18:20:17.727Z,65.22
2022-12-14T18:22:49.584Z,62.88
2022-12-14T18:25:30.344Z,64.03
2022-12-14T18:27:58.661Z,75.60
2022-12-14T18:30:27.070Z,83.05
2022-12-14T18:32:55.966Z,73.28
2022-12-14T18:35:26.063Z,64.35
2022-12-14T18:37:55.648Z,68.70
2022-12-14T18:40:26.080Z,67.07
2022-12-14T18:42:54.922Z,62.28
2022-12-14T18:45:25.059Z,64.85
2022-12-14T18:47:54.110Z,65.80
2022-12-14T18:50:23.282Z,62.97
2022-12-14T18:52:51.663Z,63.38
2022-12-14T18:55:23.735Z,64.00
2022-12-14T18:57:53.593Z,72.22
2022-12-14T19:00:23.439Z,67.78
2022-12-14T19:02:52.271Z,69.00
2022-12-14T19:05:26.092Z,61.35
2022-12-14T19:07:54.850Z,69.97
2022-12-14T19:10:26.913Z,103.35
2022-12-14T19:12:55.875Z,74.88
2022-12-14T19:15:26.520Z,70.82
2022-12-14T19:17:54.825Z,74.03
2022-12-14T19:20:23.262Z,86.75
2022-12-14T19:22:52.215Z,78.15
2022-12-14T19:25:22.189Z,78.10
2022-12-14T19:30:41.392Z,72.43
2022-12-14T19:33:10.590Z,76.82
2022-12-14T19:35:41.084Z,79.30
2022-12-14T19:38:13.438Z,81.38
2022-12-14T19:40:41.794Z,73.32
2022-12-14T19:43:11.132Z,70.28
2022-12-14T19:45:40.577Z,66.38
2022-12-14T19:48:12.949Z,57.80
2022-12-14T19:50:41.311Z,65.55
2022-12-14T19:53:09.349Z,59.75
2022-12-14T19:55:37.389Z,59.30
2022-12-14T19:58:05.534Z,58.80
2022-12-14T20:00:34.945Z,84.45
2022-12-14T20:03:03.260Z,72.25
2022-12-14T20:05:31.503Z,60.67
2022-12-14T20:07:59.504Z,61.75
2022-12-14T20:10:27.606Z,61.33
2022-12-14T20:12:55.564Z,60.58
2022-12-14T20:15:23.774Z,70.10
2022-12-14T20:18:10.212Z,68.13
2022-12-14T20:20:38.262Z,63.80
2022-12-14T20:23:06.243Z,62.35
2022-12-14T20:25:34.509Z,64.40
2022-12-14T20:28:03.133Z,74.78
2022-12-14T20:30:31.690Z,75.88
2022-12-14T20:32:59.657Z,72.07
2022-12-14T20:35:28.929Z,68.80
2022-12-14T20:37:56.934Z,93.93
2022-12-14T20:40:24.997Z,72.90
2022-12-14T20:42:54.451Z,65.85
2022-12-14T20:45:22.451Z,59.15
2022-12-14T20:47:53.700Z,67.07
2022-12-14T20:50:22.082Z,61.10
2022-12-14T20:52:51.431Z,64.00
2022-12-14T20:55:19.712Z,59.15
2022-12-14T20:57:47.744Z,59.35
2022-12-14T21:00:16.456Z,56.88
2022-12-14T21:02:44.535Z,53.30
2022-12-14T21:05:12.545Z,56.03
2022-12-14T21:07:40.577Z,54.97
2022-12-14T21:10:10.721Z,57.55
2022-12-14T21:12:37.825Z,52.65
2022-12-14T21:15:06.761Z,59.40
2022-12-14T21:17:34.872Z,58.17
2022-12-14T21:20:03.640Z,62.80
2022-12-14T21:22:31.900Z,55.47
2022-12-14T21:25:03.571Z,59.15
2022-12-14T21:27:35.154Z,57.45
2022-12-14T21:30:03.570Z,61.08
2022-12-14T21:32:31.576Z,66.28
2022-12-14T21:34:59.574Z,62.20
2022-12-14T21:37:27.492Z,61.97
2022-12-14T21:39:56.013Z,61.45
2022-12-14T21:42:23.521Z,64.88
2022-12-14T21:44:54.157Z,66.03
2022-12-14T21:47:25.343Z,63.15
2022-12-14T21:49:53.909Z,73.80
2022-12-14T21:52:24.674Z,70.35
2022-12-14T21:54:52.571Z,67.47
2022-12-14T21:57:39.665Z,66.57
2022-12-14T22:00:11.491Z,64.22
2022-12-14T22:02:41.507Z,60.42
2022-12-14T22:05:10.394Z,60.38
2022-12-14T22:07:38.397Z,60.75
2022-12-14T22:10:07.210Z,60.45
2022-12-14T22:12:35.148Z,59.80
2022-12-14T22:15:03.280Z,57.08
2022-12-14T22:17:32.723Z,54.88
2022-12-14T22:20:00.627Z,62.92
2022-12-14T22:22:28.601Z,55.83
2022-12-14T22:24:56.561Z,57.92
2022-12-14T22:27:24.621Z,56.92
2022-12-14T22:29:52.524Z,57.60
2022-12-14T22:32:20.645Z,52.38
2022-12-14T22:34:50.366Z,56.80
2022-12-14T22:37:18.679Z,58.65
2022-12-14T22:39:47.680Z,58.28
2022-12-14T22:42:16.496Z,58.58
2022-12-14T22:44:44.538Z,64.07
2022-12-14T22:47:12.530Z,56.35
2022-12-14T22:49:40.740Z,54.35
2022-12-14T22:52:10.231Z,68.30
2022-12-14T22:54:39.494Z,58.65
2022-12-14T22:57:11.095Z,56.35
2022-12-14T22:59:43.694Z,63.08
2022-12-14T23:02:11.850Z,59.80
2022-12-14T23:04:40.230Z,57.90
2022-12-14T23:07:09.584Z,61.85
2022-12-14T23:09:54.767Z,59.95
2022-12-14T23:12:40.805Z,55.85
2022-12-14T23:15:26.430Z,61.95
2022-12-14T23:18:13.908Z,58.13
2022-12-14T23:20:59.648Z,65.63
2022-12-14T23:23:46.386Z,59.60
2022-12-14T23:26:31.664Z,59.88
2022-12-14T23:29:17.179Z,60.17
2022-12-14T23:32:02.771Z,58.65
2022-12-14T23:34:48.293Z,59.35
2022-12-14T23:37:34.217Z,60.95
2022-12-14T23:40:20.874Z,53.30
2022-12-14T23:43:06.364Z,52.67
2022-12-14T23:45:52.179Z,55.53
2022-12-14T23:48:37.751Z,62.65
2022-12-14T23:51:24.035Z,55.72
2022-12-14T23:54:09.505Z,65.15
2022-12-14T23:56:56.241Z,60.92
2022-12-14T23:59:41.805Z,58.97
